Maersk Weymouth — VRFS9 — position and weather

sailwx.info

Track history (hours):
 
Tides and Currents Weather Stations Pressure Air Temp Water Temp Dewpoint Dewpoint Depression Visibility Wind Speed Wind Dir Waves Ship Positions

Maersk Weymouth

Last reported at 2016-May-28 23:34 UTC. Time now 2016-May-29 00:05 UTC.
Position N 09°22' W 079°53'.

Length 172 m; draft 7.6 m.

Type: Cargo ship. MMSI: 477622100.

Date/timePositionNaut miles runAvg speedWind from/ knotsBaromVisibWave heightAir tempDewpointWater temp
2016-May-28 23:34N 09°22' W 079°53'0 0.1
2016-May-28 22:33N 09°22' W 079°53'0 0.0
2016-May-28 21:33N 09°22' W 079°53'0 0.0
2016-May-28 20:33N 09°22' W 079°53'0 0.0
2016-May-28 19:30N 09°22' W 079°53'0 0.0
2016-May-28 18:32N 09°22' W 079°53'0 0.0
2016-May-28 17:32N 09°22' W 079°53'0 0.0
2016-May-28 16:32N 09°22' W 079°53'0 0.0
2016-May-28 15:33N 09°22' W 079°53'0 0.0
2016-May-28 14:32N 09°22' W 079°53'0 0.0
2016-May-28 13:33N 09°22' W 079°53'0 0.0
2016-May-28 12:32N 09°22' W 079°53'0 0.0
2016-May-28 11:33N 09°22' W 079°53'0 0.4
2016-May-28 10:33N 09°22' W 079°53'6 5.7
2016-May-28 09:33N 09°28' W 079°53'1 1.0
2016-May-28 08:33N 09°29' W 079°53'4 3.5
2016-May-28 07:33N 09°32' W 079°52'4 4.2
2016-May-28 06:33N 09°36' W 079°51'4 3.8
2016-May-28 05:33N 09°40' W 079°51'4 3.6
2016-May-28 04:33N 09°43' W 079°49'3 3.3
2016-May-28 03:33N 09°45' W 079°47'4 4.2
2016-May-28 02:33N 09°46' W 079°42'4 4.4
2016-May-28 01:33N 09°46' W 079°38'5 4.9
2016-May-28 00:33N 09°47' W 079°33'5 5.4
2016-May-27 23:33N 09°48' W 079°27'6 6.0
2016-May-27 22:33N 09°49' W 079°21'  
2016-May-23 01:25N 25°38' W 079°36'910.1
2016-May-23 00:33N 25°46' W 079°39'9 9.4
2016-May-22 23:33N 25°54' W 079°45'10 9.7
2016-May-22 22:33N 25°60' W 079°53'10 9.6
2016-May-22 21:33N 26°06' W 080°02'5 4.8
2016-May-22 20:28N 26°04' W 080°07'0 0.0
2016-May-22 19:28N 26°04' W 080°07'0 0.0
2016-May-22 18:31N 26°04' W 080°07'0 0.0
2016-May-22 17:31N 26°04' W 080°07'0 0.0
2016-May-22 16:31N 26°04' W 080°07'3 2.7
2016-May-22 15:33N 26°06' W 080°05'3 2.7
2016-May-22 14:33N 26°06' W 080°02'6 6.3
2016-May-22 13:33N 26°11' W 079°57'8 8.4
2016-May-22 12:33N 26°19' W 079°53'9 9.2
2016-May-22 11:33N 26°28' W 079°51'9 9.3
2016-May-22 10:33N 26°37' W 079°49'10 9.8
2016-May-22 09:31N 26°47' W 079°47'1110.0
2016-May-22 08:24N 26°58' W 079°45'9 9.6
2016-May-22 07:29N 27°07' W 079°44'9 9.2
2016-May-22 06:31N 27°15' W 079°42'250 9.6
2016-May-21 04:30N 31°24' W 080°12'1111.9
2016-May-21 03:33N 31°33' W 080°19'1212.0
2016-May-21 02:32N 31°43' W 080°28'1111.7
2016-May-21 01:33N 31°52' W 080°36'1111.3
2016-May-21 00:33N 31°59' W 080°46'1110.8
2016-May-20 23:34N 32°04' W 080°58'7 7.1
2016-May-20 22:33N 32°05' W 081°06'3 2.8
2016-May-20 21:33N 32°07' W 081°08'0 0.0
2016-May-20 20:31N 32°07' W 081°08'0 0.0
2016-May-20 19:31N 32°07' W 081°08'0 0.0
2016-May-20 18:31N 32°07' W 081°08'0 0.0
2016-May-20 17:31N 32°07' W 081°08'0 0.0
2016-May-20 16:31N 32°07' W 081°08'0 0.0
2016-May-20 15:31N 32°07' W 081°08'0 0.0
2016-May-20 14:31N 32°07' W 081°08'0 0.0
2016-May-20 13:31N 32°07' W 081°08'0 0.0
2016-May-20 12:31N 32°07' W 081°08'0 0.0
2016-May-20 11:31N 32°07' W 081°08'0 0.0
2016-May-20 10:31N 32°07' W 081°08'0 0.0
2016-May-20 09:31N 32°07' W 081°08'1 0.7
2016-May-20 08:33N 32°08' W 081°08'5 5.5
2016-May-20 07:33N 32°05' W 081°03'1111.0
2016-May-20 06:33N 32°02' W 080°50'1312.5
2016-May-20 05:34N 31°59' W 080°36'10 8.7
2016-May-20 04:22N 32°01' W 080°24'  
Track history (hours):
 
Tides and Currents Weather Stations Pressure Air Temp Water Temp Dewpoint Dewpoint Depression Visibility Wind Speed Wind Dir Waves Ship Positions

Maersk Weymouth

Last reported at 2016-May-28 23:34 UTC. Time now 2016-May-29 00:05 UTC.
Position N 09°22' W 079°53'.

Length 172 m; draft 7.6 m.

Type: Cargo ship. MMSI: 477622100.

Date/timePositionNaut miles runAvg speedWind from/ knotsBaromVisibWave heightAir tempDewpointWater temp
2016-May-28 23:34N 09°22' W 079°53'0 0.1
2016-May-28 22:33N 09°22' W 079°53'0 0.0
2016-May-28 21:33N 09°22' W 079°53'0 0.0
2016-May-28 20:33N 09°22' W 079°53'0 0.0
2016-May-28 19:30N 09°22' W 079°53'0 0.0
2016-May-28 18:32N 09°22' W 079°53'0 0.0
2016-May-28 17:32N 09°22' W 079°53'0 0.0
2016-May-28 16:32N 09°22' W 079°53'0 0.0
2016-May-28 15:33N 09°22' W 079°53'0 0.0
2016-May-28 14:32N 09°22' W 079°53'0 0.0
2016-May-28 13:33N 09°22' W 079°53'0 0.0
2016-May-28 12:32N 09°22' W 079°53'0 0.0
2016-May-28 11:33N 09°22' W 079°53'0 0.4
2016-May-28 10:33N 09°22' W 079°53'6 5.7
2016-May-28 09:33N 09°28' W 079°53'1 1.0
2016-May-28 08:33N 09°29' W 079°53'4 3.5
2016-May-28 07:33N 09°32' W 079°52'4 4.2
2016-May-28 06:33N 09°36' W 079°51'4 3.8
2016-May-28 05:33N 09°40' W 079°51'4 3.6
2016-May-28 04:33N 09°43' W 079°49'3 3.3
2016-May-28 03:33N 09°45' W 079°47'4 4.2
2016-May-28 02:33N 09°46' W 079°42'4 4.4
2016-May-28 01:33N 09°46' W 079°38'5 4.9
2016-May-28 00:33N 09°47' W 079°33'5 5.4
2016-May-27 23:33N 09°48' W 079°27'6 6.0
2016-May-27 22:33N 09°49' W 079°21'  
2016-May-23 01:25N 25°38' W 079°36'910.1
2016-May-23 00:33N 25°46' W 079°39'9 9.4
2016-May-22 23:33N 25°54' W 079°45'10 9.7
2016-May-22 22:33N 25°60' W 079°53'10 9.6
2016-May-22 21:33N 26°06' W 080°02'5 4.8
2016-May-22 20:28N 26°04' W 080°07'0 0.0
2016-May-22 19:28N 26°04' W 080°07'0 0.0
2016-May-22 18:31N 26°04' W 080°07'0 0.0
2016-May-22 17:31N 26°04' W 080°07'0 0.0
2016-May-22 16:31N 26°04' W 080°07'3 2.7
2016-May-22 15:33N 26°06' W 080°05'3 2.7
2016-May-22 14:33N 26°06' W 080°02'6 6.3
2016-May-22 13:33N 26°11' W 079°57'8 8.4
2016-May-22 12:33N 26°19' W 079°53'9 9.2
2016-May-22 11:33N 26°28' W 079°51'9 9.3
2016-May-22 10:33N 26°37' W 079°49'10 9.8
2016-May-22 09:31N 26°47' W 079°47'1110.0
2016-May-22 08:24N 26°58' W 079°45'9 9.6
2016-May-22 07:29N 27°07' W 079°44'9 9.2
2016-May-22 06:31N 27°15' W 079°42'250 9.6
2016-May-21 04:30N 31°24' W 080°12'1111.9
2016-May-21 03:33N 31°33' W 080°19'1212.0
2016-May-21 02:32N 31°43' W 080°28'1111.7
2016-May-21 01:33N 31°52' W 080°36'1111.3
2016-May-21 00:33N 31°59' W 080°46'1110.8
2016-May-20 23:34N 32°04' W 080°58'7 7.1
2016-May-20 22:33N 32°05' W 081°06'3 2.8
2016-May-20 21:33N 32°07' W 081°08'0 0.0
2016-May-20 20:31N 32°07' W 081°08'0 0.0
2016-May-20 19:31N 32°07' W 081°08'0 0.0
2016-May-20 18:31N 32°07' W 081°08'0 0.0
2016-May-20 17:31N 32°07' W 081°08'0 0.0
2016-May-20 16:31N 32°07' W 081°08'0 0.0
2016-May-20 15:31N 32°07' W 081°08'0 0.0
2016-May-20 14:31N 32°07' W 081°08'0 0.0
2016-May-20 13:31N 32°07' W 081°08'0 0.0
2016-May-20 12:31N 32°07' W 081°08'0 0.0
2016-May-20 11:31N 32°07' W 081°08'0 0.0
2016-May-20 10:31N 32°07' W 081°08'0 0.0
2016-May-20 09:31N 32°07' W 081°08'1 0.7
2016-May-20 08:33N 32°08' W 081°08'5 5.5
2016-May-20 07:33N 32°05' W 081°03'1111.0
2016-May-20 06:33N 32°02' W 080°50'1312.5
2016-May-20 05:34N 31°59' W 080°36'10 8.7
2016-May-20 04:22N 32°01' W 080°24'  

Dump ship's entire track history